PWSweather.com
Personal Weather Stations
Station Observations
KMILAPEE3
Lapeer Michigan, Lapeer, MI 48446

Lapeer MichiganLapeer, MI 48446

Lat: 43.057, Lon: -83.362

Elevation: 897

Station Type: Oregon Scientific WMR-968

Latest ConditionsUpdated 11:48:43 AM EST Friday, Nov 28, 2014
Currently Today's Max Today's Min Today's Average
Temperature 24.4°F-4.2°C 25.0°F-3.9°C 15.1°F-9.4°C 18.7°F-7.4°C
Dew Point 8.5°F-13.1°C 9.1°F-12.7°C 0.7°F-17.4°C 4.4°F-15.3°C
Winds 6.2 mph SW10.0 kmh SW 11.5 mph WNW18.5 kmh WNW - 6.0 mph 9.7 kmh
Wind Gusts 15.1 mph24.3 kmh 19.4 mph31.2 kmh - -
Humidity 50% 56% 50% 53%
Pressure 32.01 in1084.0 mb 32.01 in1084.0 mb 32.01 in1084.0 mb -
Hour Temp Dew Point Humidity Winds Wind Gusts Pressure Precip Precip Rate Daily Precip Total
11:48 AM 24.4°F-4.2°C 8.5°F-13.1°C 50% 6.2 mph SW10.0 kmh SW 15.1 mph24.3 kmh 32.01 in1084.0 mb 0.00 in0.0 mm 0.00 in/hr0.0 mm/hr 0.00 in0.0 mm
11:43 AM 25.0°F-3.9°C 9.1°F-12.7°C 50% 9.0 mph SW14.5 kmh SW 15.1 mph24.3 kmh 32.01 in1084.0 mb 0.00 in0.0 mm 0.00 in/hr0.0 mm/hr 0.00 in0.0 mm
11:38 AM 25.0°F-3.9°C 9.1°F-12.7°C 50% 7.2 mph SW11.6 kmh SW 11.4 mph18.3 kmh 32.01 in1084.0 mb 0.00 in0.0 mm 0.00 in/hr0.0 mm/hr 0.00 in0.0 mm
11:33 AM 24.6°F-4.1°C 8.7°F-12.9°C 50% 4.4 mph SW7.1 kmh SW 12.0 mph19.3 kmh 32.01 in1084.0 mb 0.00 in0.0 mm 0.00 in/hr0.0 mm/hr 0.00 in0.0 mm
11:28 AM 24.6°F-4.1°C 8.7°F-12.9°C 50% 5.5 mph SW8.9 kmh SW 12.0 mph19.3 kmh 32.01 in1084.0 mb 0.00 in0.0 mm 0.00 in/hr0.0 mm/hr 0.00 in0.0 mm
11:23 AM 24.6°F-4.1°C 8.7°F-12.9°C 50% 5.3 mph WSW8.5 kmh WSW 10.4 mph16.7 kmh 32.01 in1084.0 mb 0.00 in0.0 mm 0.00 in/hr0.0 mm/hr 0.00 in0.0 mm
11:18 AM 24.3°F-4.3°C 8.9°F-12.8°C 52% 4.8 mph SW7.7 kmh SW 10.4 mph16.7 kmh 32.01 in1084.0 mb 0.00 in0.0 mm 0.00 in/hr0.0 mm/hr 0.00 in0.0 mm
11:13 AM 23.9°F-4.5°C 8.6°F-13.0°C 52% 4.5 mph SW7.2 kmh SW 11.4 mph18.3 kmh 32.01 in1084.0 mb 0.00 in0.0 mm 0.00 in/hr0.0 mm/hr 0.00 in0.0 mm
11:08 AM 23.7°F-4.6°C 8.4°F-13.1°C 52% 6.6 mph SW10.6 kmh SW 11.4 mph18.3 kmh 32.01 in1084.0 mb 0.00 in0.0 mm 0.00 in/hr0.0 mm/hr 0.00 in0.0 mm
11:03 AM 23.4°F-4.8°C 8.6°F-13.0°C 53% 5.9 mph S9.5 kmh S 10.4 mph16.7 kmh 32.01 in1084.0 mb 0.00 in0.0 mm 0.00 in/hr0.0 mm/hr 0.00 in0.0 mm
10:58 AM 22.8°F-5.1°C 8.0°F-13.3°C 53% 5.6 mph S9.0 kmh S 9.2 mph14.8 kmh 32.01 in1084.0 mb 0.00 in0.0 mm 0.00 in/hr0.0 mm/hr 0.00 in0.0 mm
10:53 AM 22.3°F-5.4°C 7.6°F-13.6°C 53% 6.2 mph SSW10.0 kmh SSW 9.2 mph14.8 kmh 32.01 in1084.0 mb 0.00 in0.0 mm 0.00 in/hr0.0 mm/hr 0.00 in0.0 mm
10:46 AM 21.9°F-5.6°C 7.2°F-13.8°C 53% 4.2 mph SW6.8 kmh SW 8.7 mph14.0 kmh 32.01 in1084.0 mb 0.00 in0.0 mm 0.00 in/hr0.0 mm/hr 0.00 in0.0 mm
10:41 AM 21.6°F-5.8°C 6.9°F-13.9°C 53% Calm Calm 9.9 mph15.9 kmh 32.01 in1084.0 mb 0.00 in0.0 mm 0.00 in/hr0.0 mm/hr 0.00 in0.0 mm
10:36 AM 21.4°F-5.9°C 6.7°F-14.1°C 53% 5.2 mph SW8.4 kmh SW 9.9 mph15.9 kmh 32.01 in1084.0 mb 0.00 in0.0 mm 0.00 in/hr0.0 mm/hr 0.00 in0.0 mm
10:31 AM 21.2°F-6.0°C 7.0°F-13.9°C 54% 4.0 mph SW6.4 kmh SW 10.4 mph16.7 kmh 32.01 in1084.0 mb 0.00 in0.0 mm 0.00 in/hr0.0 mm/hr 0.00 in0.0 mm
10:26 AM 21.0°F-6.1°C 6.8°F-14.0°C 54% 5.7 mph SW9.2 kmh SW 10.4 mph16.7 kmh 32.01 in1084.0 mb 0.00 in0.0 mm 0.00 in/hr0.0 mm/hr 0.00 in0.0 mm
10:21 AM 21.0°F-6.1°C 6.8°F-14.0°C 54% 4.2 mph WSW6.8 kmh WSW 9.9 mph15.9 kmh 32.01 in1084.0 mb 0.00 in0.0 mm 0.00 in/hr0.0 mm/hr 0.00 in0.0 mm
10:16 AM 20.8°F-6.2°C 6.6°F-14.1°C 54% 6.2 mph SW10.0 kmh SW 9.2 mph14.8 kmh 32.01 in1084.0 mb 0.00 in0.0 mm 0.00 in/hr0.0 mm/hr 0.00 in0.0 mm
10:11 AM 20.8°F-6.2°C 7.1°F-13.8°C 55% 5.7 mph SSW9.2 kmh SSW 9.9 mph15.9 kmh 32.01 in1084.0 mb 0.00 in0.0 mm 0.00 in/hr0.0 mm/hr 0.00 in0.0 mm
10:06 AM 20.5°F-6.4°C 6.8°F-14.0°C 55% 6.4 mph SSW10.3 kmh SSW 9.9 mph15.9 kmh 32.01 in1084.0 mb 0.00 in0.0 mm 0.00 in/hr0.0 mm/hr 0.00 in0.0 mm
10:01 AM 20.3°F-6.5°C 6.7°F-14.1°C 55% 5.1 mph SW8.2 kmh SW 9.2 mph14.8 kmh 32.01 in1084.0 mb 0.00 in0.0 mm 0.00 in/hr0.0 mm/hr 0.00 in0.0 mm
09:56 AM 20.3°F-6.5°C 6.7°F-14.1°C 55% 4.0 mph WSW6.4 kmh WSW 8.0 mph12.9 kmh 32.01 in1084.0 mb 0.00 in0.0 mm 0.00 in/hr0.0 mm/hr 0.00 in0.0 mm
09:51 AM 20.1°F-6.6°C 6.5°F-14.2°C 55% 3.0 mph SW4.8 kmh SW 8.7 mph14.0 kmh 32.01 in1084.0 mb 0.00 in0.0 mm 0.00 in/hr0.0 mm/hr 0.00 in0.0 mm
09:45 AM 20.1°F-6.6°C 6.5°F-14.2°C 55% 4.1 mph SW6.6 kmh SW 8.7 mph14.0 kmh 32.01 in1084.0 mb 0.00 in0.0 mm 0.00 in/hr0.0 mm/hr 0.00 in0.0 mm
09:40 AM 19.9°F-6.7°C 6.3°F-14.3°C 55% 4.9 mph SW7.9 kmh SW 8.0 mph12.9 kmh 32.01 in1084.0 mb 0.00 in0.0 mm 0.00 in/hr0.0 mm/hr 0.00 in0.0 mm
09:34 AM 19.8°F-6.8°C 6.2°F-14.3°C 55% 4.1 mph SW6.6 kmh SW 5.5 mph8.9 kmh 32.01 in1084.0 mb 0.00 in0.0 mm 0.00 in/hr0.0 mm/hr 0.00 in0.0 mm
09:29 AM 19.4°F-7.0°C 6.3°F-14.3°C 56% Calm Calm 3.7 mph6.0 kmh 32.01 in1084.0 mb 0.00 in0.0 mm 0.00 in/hr0.0 mm/hr 0.00 in0.0 mm
09:24 AM 19.4°F-7.0°C 6.2°F-14.3°C 56% Calm Calm 4.5 mph7.2 kmh 32.01 in1084.0 mb 0.00 in0.0 mm 0.00 in/hr0.0 mm/hr 0.00 in0.0 mm
09:19 AM 19.2°F-7.1°C 6.1°F-14.4°C 56% 2.8 mph SW4.5 kmh SW 7.4 mph11.9 kmh 32.01 in1084.0 mb 0.00 in0.0 mm 0.00 in/hr0.0 mm/hr 0.00 in0.0 mm
09:14 AM 19.0°F-7.2°C 5.9°F-14.5°C 56% 4.6 mph SW7.4 kmh SW 7.4 mph11.9 kmh 32.01 in1084.0 mb 0.00 in0.0 mm 0.00 in/hr0.0 mm/hr 0.00 in0.0 mm
09:09 AM 19.0°F-7.2°C 5.9°F-14.5°C 56% 4.5 mph SW7.2 kmh SW 6.7 mph10.8 kmh 32.01 in1084.0 mb 0.00 in0.0 mm 0.00 in/hr0.0 mm/hr 0.00 in0.0 mm
09:04 AM 18.9°F-7.3°C 5.7°F-14.6°C 56% Calm Calm 6.7 mph10.8 kmh 32.01 in1084.0 mb 0.00 in0.0 mm 0.00 in/hr0.0 mm/hr 0.00 in0.0 mm
08:59 AM 18.7°F-7.4°C 5.6°F-14.7°C 56% 3.7 mph SW6.0 kmh SW 6.7 mph10.8 kmh 32.01 in1084.0 mb 0.00 in0.0 mm 0.00 in/hr0.0 mm/hr 0.00 in0.0 mm
08:54 AM 18.5°F-7.5°C 5.4°F-14.8°C 56% 3.5 mph SW5.6 kmh SW 7.4 mph11.9 kmh 32.01 in1084.0 mb 0.00 in0.0 mm 0.00 in/hr0.0 mm/hr 0.00 in0.0 mm
08:49 AM 18.3°F-7.6°C 5.2°F-14.9°C 56% 4.2 mph SW6.8 kmh SW 7.4 mph11.9 kmh 32.01 in1084.0 mb 0.00 in0.0 mm 0.00 in/hr0.0 mm/hr 0.00 in0.0 mm
08:44 AM 18.3°F-7.6°C 5.2°F-14.9°C 56% 3.0 mph WSW4.8 kmh WSW 4.9 mph7.9 kmh 32.01 in1084.0 mb 0.00 in0.0 mm 0.00 in/hr0.0 mm/hr 0.00 in0.0 mm
08:39 AM 18.1°F-7.7°C 5.0°F-15.0°C 56% 3.4 mph WSW5.5 kmh WSW 5.5 mph8.9 kmh 32.01 in1084.0 mb 0.00 in0.0 mm 0.00 in/hr0.0 mm/hr 0.00 in0.0 mm
08:34 AM 17.8°F-7.9°C 4.7°F-15.2°C 56% 4.1 mph WSW6.6 kmh WSW 5.5 mph8.9 kmh 32.01 in1084.0 mb 0.00 in0.0 mm 0.00 in/hr0.0 mm/hr 0.00 in0.0 mm
08:28 AM 17.8°F-7.9°C 4.7°F-15.2°C 56% 3.9 mph WSW6.3 kmh WSW 6.7 mph10.8 kmh 32.01 in1084.0 mb 0.00 in0.0 mm 0.00 in/hr0.0 mm/hr 0.00 in0.0 mm
08:24 AM 17.6°F-8.0°C 4.5°F-15.3°C 56% 3.9 mph WSW6.3 kmh WSW 8.0 mph12.9 kmh 32.01 in1084.0 mb 0.00 in0.0 mm 0.00 in/hr0.0 mm/hr 0.00 in0.0 mm
08:19 AM 17.6°F-8.0°C 4.5°F-15.3°C 56% 4.8 mph WSW7.7 kmh WSW 8.0 mph12.9 kmh 32.01 in1084.0 mb 0.00 in0.0 mm 0.00 in/hr0.0 mm/hr 0.00 in0.0 mm
08:14 AM 17.4°F-8.1°C 4.3°F-15.4°C 56% 4.2 mph W6.8 kmh W 7.4 mph11.9 kmh 32.01 in1084.0 mb 0.00 in0.0 mm 0.00 in/hr0.0 mm/hr 0.00 in0.0 mm
08:09 AM 17.4°F-8.1°C 4.3°F-15.4°C 56% 5.6 mph W9.0 kmh W 8.7 mph14.0 kmh 32.01 in1084.0 mb 0.00 in0.0 mm 0.00 in/hr0.0 mm/hr 0.00 in0.0 mm
08:03 AM 17.2°F-8.2°C 4.1°F-15.5°C 56% 5.3 mph WSW8.5 kmh WSW 8.7 mph14.0 kmh 32.01 in1084.0 mb 0.00 in0.0 mm 0.00 in/hr0.0 mm/hr 0.00 in0.0 mm
07:59 AM 17.1°F-8.3°C 4.0°F-15.6°C 56% 3.0 mph W4.8 kmh W 6.7 mph10.8 kmh 32.01 in1084.0 mb 0.00 in0.0 mm 0.00 in/hr0.0 mm/hr 0.00 in0.0 mm
07:53 AM 17.1°F-8.3°C 3.9°F-15.6°C 56% Calm Calm 5.5 mph8.9 kmh 32.01 in1084.0 mb 0.00 in0.0 mm 0.00 in/hr0.0 mm/hr 0.00 in0.0 mm
07:48 AM 17.1°F-8.3°C 3.9°F-15.6°C 56% 3.7 mph W6.0 kmh W 7.4 mph11.9 kmh 32.01 in1084.0 mb 0.00 in0.0 mm 0.00 in/hr0.0 mm/hr 0.00 in0.0 mm
07:42 AM 17.1°F-8.3°C 3.4°F-15.9°C 54% 4.7 mph W7.6 kmh W 7.4 mph11.9 kmh 32.01 in1084.0 mb 0.00 in0.0 mm 0.00 in/hr0.0 mm/hr 0.00 in0.0 mm
07:37 AM 17.1°F-8.3°C 3.4°F-15.9°C 54% Calm Calm 8.0 mph12.9 kmh 32.01 in1084.0 mb 0.00 in0.0 mm 0.00 in/hr0.0 mm/hr 0.00 in0.0 mm
07:30 AM 16.9°F-8.4°C 3.2°F-16.0°C 54% 4.2 mph W6.8 kmh W 6.7 mph10.8 kmh 32.01 in1084.0 mb 0.00 in0.0 mm 0.00 in/hr0.0 mm/hr 0.00 in0.0 mm
07:25 AM 16.9°F-8.4°C 3.2°F-16.0°C 54% Calm Calm 5.5 mph8.9 kmh 32.01 in1084.0 mb 0.00 in0.0 mm 0.00 in/hr0.0 mm/hr 0.00 in0.0 mm
07:20 AM 16.9°F-8.4°C 3.2°F-16.0°C 54% 4.1 mph W6.6 kmh W 5.5 mph8.9 kmh 32.01 in1084.0 mb 0.00 in0.0 mm 0.00 in/hr0.0 mm/hr 0.00 in0.0 mm
07:15 AM 16.7°F-8.5°C 3.0°F-16.1°C 54% 3.9 mph WSW6.3 kmh WSW 5.5 mph8.9 kmh 32.01 in1084.0 mb 0.00 in0.0 mm 0.00 in/hr0.0 mm/hr 0.00 in0.0 mm
07:10 AM 16.7°F-8.5°C 3.0°F-16.1°C 54% 3.4 mph W5.5 kmh W 5.6 mph9.0 kmh 32.01 in1084.0 mb 0.00 in0.0 mm 0.00 in/hr0.0 mm/hr 0.00 in0.0 mm
07:05 AM 16.7°F-8.5°C 3.0°F-16.1°C 54% 3.9 mph W6.3 kmh W 8.7 mph14.0 kmh 32.01 in1084.0 mb 0.00 in0.0 mm 0.00 in/hr0.0 mm/hr 0.00 in0.0 mm
06:59 AM 16.7°F-8.5°C 3.0°F-16.1°C 54% 5.3 mph W8.5 kmh W 8.7 mph14.0 kmh 32.01 in1084.0 mb 0.00 in0.0 mm 0.00 in/hr0.0 mm/hr 0.00 in0.0 mm
06:54 AM 16.7°F-8.5°C 3.0°F-16.1°C 54% 5.0 mph W8.0 kmh W 8.7 mph14.0 kmh 32.01 in1084.0 mb 0.00 in0.0 mm 0.00 in/hr0.0 mm/hr 0.00 in0.0 mm
06:49 AM 16.5°F-8.6°C 2.8°F-16.2°C 54% 4.0 mph W6.4 kmh W 10.4 mph16.7 kmh 32.01 in1084.0 mb 0.00 in0.0 mm 0.00 in/hr0.0 mm/hr 0.00 in0.0 mm
06:44 AM 16.5°F-8.6°C 2.8°F-16.2°C 54% 6.2 mph W10.0 kmh W 10.4 mph16.7 kmh 32.01 in1084.0 mb 0.00 in0.0 mm 0.00 in/hr0.0 mm/hr 0.00 in0.0 mm
06:39 AM 16.5°F-8.6°C 2.8°F-16.2°C 54% 4.1 mph W6.6 kmh W 8.0 mph12.9 kmh 32.01 in1084.0 mb 0.00 in0.0 mm 0.00 in/hr0.0 mm/hr 0.00 in0.0 mm
06:34 AM 16.5°F-8.6°C 2.7°F-16.3°C 54% 3.0 mph W4.8 kmh W 8.7 mph14.0 kmh 32.01 in1084.0 mb 0.00 in0.0 mm 0.00 in/hr0.0 mm/hr 0.00 in0.0 mm
06:28 AM 16.3°F-8.7°C 2.6°F-16.3°C 54% 5.9 mph W9.5 kmh W 9.2 mph14.8 kmh 32.01 in1084.0 mb 0.00 in0.0 mm 0.00 in/hr0.0 mm/hr 0.00 in0.0 mm
06:23 AM 16.3°F-8.7°C 2.1°F-16.6°C 53% 5.6 mph W9.0 kmh W 9.2 mph14.8 kmh 32.01 in1084.0 mb 0.00 in0.0 mm 0.00 in/hr0.0 mm/hr 0.00 in0.0 mm
06:17 AM 16.2°F-8.8°C 2.0°F-16.7°C 53% 5.4 mph W8.7 kmh W 11.1 mph17.9 kmh 32.01 in1084.0 mb 0.00 in0.0 mm 0.00 in/hr0.0 mm/hr 0.00 in0.0 mm
06:12 AM 16.2°F-8.8°C 2.0°F-16.7°C 53% 6.0 mph W9.7 kmh W 11.1 mph17.9 kmh 32.01 in1084.0 mb 0.00 in0.0 mm 0.00 in/hr0.0 mm/hr 0.00 in0.0 mm
06:07 AM 16.0°F-8.9°C 1.8°F-16.8°C 53% 6.1 mph W9.8 kmh W 9.2 mph14.8 kmh 32.01 in1084.0 mb 0.00 in0.0 mm 0.00 in/hr0.0 mm/hr 0.00 in0.0 mm
06:02 AM 16.0°F-8.9°C 1.8°F-16.8°C 53% 5.5 mph W8.9 kmh W 11.1 mph17.9 kmh 32.01 in1084.0 mb 0.00 in0.0 mm 0.00 in/hr0.0 mm/hr 0.00 in0.0 mm
05:55 AM 16.0°F-8.9°C 1.9°F-16.7°C 53% 6.5 mph W10.5 kmh W 11.1 mph17.9 kmh 32.01 in1084.0 mb 0.00 in0.0 mm 0.00 in/hr0.0 mm/hr 0.00 in0.0 mm
05:50 AM 16.2°F-8.8°C 2.1°F-16.6°C 53% 5.1 mph W8.2 kmh W 10.4 mph16.7 kmh 32.01 in1084.0 mb 0.00 in0.0 mm 0.00 in/hr0.0 mm/hr 0.00 in0.0 mm
05:45 AM 16.2°F-8.8°C 2.1°F-16.6°C 53% 5.8 mph W9.3 kmh W 10.4 mph16.7 kmh 32.01 in1084.0 mb 0.00 in0.0 mm 0.00 in/hr0.0 mm/hr 0.00 in0.0 mm
05:40 AM 16.2°F-8.8°C 2.1°F-16.6°C 53% 6.1 mph W9.8 kmh W 10.4 mph16.7 kmh 32.01 in1084.0 mb 0.00 in0.0 mm 0.00 in/hr0.0 mm/hr 0.00 in0.0 mm
05:35 AM 16.0°F-8.9°C 1.9°F-16.7°C 53% 4.1 mph W6.6 kmh W 8.7 mph14.0 kmh 32.01 in1084.0 mb 0.00 in0.0 mm 0.00 in/hr0.0 mm/hr 0.00 in0.0 mm
05:30 AM 16.0°F-8.9°C 1.9°F-16.7°C 53% 4.8 mph W7.7 kmh W 8.7 mph14.0 kmh 32.01 in1084.0 mb 0.00 in0.0 mm 0.00 in/hr0.0 mm/hr 0.00 in0.0 mm
05:25 AM 16.0°F-8.9°C 1.9°F-16.7°C 53% 3.9 mph W6.3 kmh W 9.2 mph14.8 kmh 32.01 in1084.0 mb 0.00 in0.0 mm 0.00 in/hr0.0 mm/hr 0.00 in0.0 mm
05:20 AM 15.8°F-9.0°C 1.8°F-16.8°C 53% 5.0 mph W8.0 kmh W 9.2 mph14.8 kmh 32.01 in1084.0 mb 0.00 in0.0 mm 0.00 in/hr0.0 mm/hr 0.00 in0.0 mm
05:14 AM 15.6°F-9.1°C 1.6°F-16.9°C 53% 5.9 mph W9.5 kmh W 9.2 mph14.8 kmh 32.01 in1084.0 mb 0.00 in0.0 mm 0.00 in/hr0.0 mm/hr 0.00 in0.0 mm
05:09 AM 15.4°F-9.2°C 1.4°F-17.0°C 53% 4.4 mph W7.1 kmh W 8.0 mph12.9 kmh 32.01 in1084.0 mb 0.00 in0.0 mm 0.00 in/hr0.0 mm/hr 0.00 in0.0 mm
05:04 AM 15.3°F-9.3°C 1.3°F-17.1°C 53% 4.0 mph W6.4 kmh W 8.0 mph12.9 kmh 32.01 in1084.0 mb 0.00 in0.0 mm 0.00 in/hr0.0 mm/hr 0.00 in0.0 mm
04:59 AM 15.3°F-9.3°C 1.3°F-17.1°C 53% 5.1 mph WNW8.2 kmh WNW 7.4 mph11.9 kmh 32.01 in1084.0 mb 0.00 in0.0 mm 0.00 in/hr0.0 mm/hr 0.00 in0.0 mm
04:54 AM 15.1°F-9.4°C 1.2°F-17.1°C 53% 5.1 mph W8.2 kmh W 7.4 mph11.9 kmh 32.01 in1084.0 mb 0.00 in0.0 mm 0.00 in/hr0.0 mm/hr 0.00 in0.0 mm
04:49 AM 15.1°F-9.4°C 1.2°F-17.1°C 53% 4.8 mph W7.7 kmh W 8.7 mph14.0 kmh 32.01 in1084.0 mb 0.00 in0.0 mm 0.00 in/hr0.0 mm/hr 0.00 in0.0 mm
04:44 AM 15.1°F-9.4°C 0.7°F-17.4°C 52% 4.7 mph W7.6 kmh W 8.7 mph14.0 kmh 32.01 in1084.0 mb 0.00 in0.0 mm 0.00 in/hr0.0 mm/hr 0.00 in0.0 mm
04:39 AM 15.3°F-9.3°C 0.9°F-17.3°C 52% 5.3 mph W8.5 kmh W 8.7 mph14.0 kmh 32.01 in1084.0 mb 0.00 in0.0 mm 0.00 in/hr0.0 mm/hr 0.00 in0.0 mm
04:34 AM 15.4°F-9.2°C 1.0°F-17.2°C 52% 6.2 mph W10.0 kmh W 11.4 mph18.3 kmh 32.01 in1084.0 mb 0.00 in0.0 mm 0.00 in/hr0.0 mm/hr 0.00 in0.0 mm
04:29 AM 15.6°F-9.1°C 1.2°F-17.1°C 52% 6.9 mph W11.1 kmh W 13.9 mph22.4 kmh 32.01 in1084.0 mb 0.00 in0.0 mm 0.00 in/hr0.0 mm/hr 0.00 in0.0 mm
04:24 AM 15.8°F-9.0°C 1.4°F-17.0°C 52% 7.7 mph WNW12.4 kmh WNW 13.9 mph22.4 kmh 32.01 in1084.0 mb 0.00 in0.0 mm 0.00 in/hr0.0 mm/hr 0.00 in0.0 mm
04:19 AM 15.8°F-9.0°C 1.4°F-17.0°C 52% 7.4 mph WNW11.9 kmh WNW 12.0 mph19.3 kmh 32.01 in1084.0 mb 0.00 in0.0 mm 0.00 in/hr0.0 mm/hr 0.00 in0.0 mm
04:14 AM 16.0°F-8.9°C 1.6°F-16.9°C 52% 7.1 mph WNW11.4 kmh WNW 11.4 mph18.3 kmh 32.01 in1084.0 mb 0.00 in0.0 mm 0.00 in/hr0.0 mm/hr 0.00 in0.0 mm
04:09 AM 16.2°F-8.8°C 1.8°F-16.8°C 52% 9.3 mph WNW15.0 kmh WNW 11.4 mph18.3 kmh 32.01 in1084.0 mb 0.00 in0.0 mm 0.00 in/hr0.0 mm/hr 0.00 in0.0 mm
04:04 AM 16.3°F-8.7°C 1.9°F-16.7°C 52% 7.6 mph W12.2 kmh W 11.4 mph18.3 kmh 32.01 in1084.0 mb 0.00 in0.0 mm 0.00 in/hr0.0 mm/hr 0.00 in0.0 mm
03:59 AM 16.5°F-8.6°C 2.1°F-16.6°C 53% 8.0 mph WNW12.9 kmh WNW 12.0 mph19.3 kmh 32.01 in1084.0 mb 0.00 in0.0 mm 0.00 in/hr0.0 mm/hr 0.00 in0.0 mm
03:54 AM 16.5°F-8.6°C 2.1°F-16.6°C 53% 8.7 mph W14.0 kmh W 12.0 mph19.3 kmh 32.01 in1084.0 mb 0.00 in0.0 mm 0.00 in/hr0.0 mm/hr 0.00 in0.0 mm
03:49 AM 16.7°F-8.5°C 2.3°F-16.5°C 53% 7.4 mph WNW11.9 kmh WNW 13.9 mph22.4 kmh 32.01 in1084.0 mb 0.00 in0.0 mm 0.00 in/hr0.0 mm/hr 0.00 in0.0 mm
03:43 AM 16.9°F-8.4°C 2.5°F-16.4°C 53% 6.5 mph W10.5 kmh W 15.1 mph24.3 kmh 32.01 in1084.0 mb 0.00 in0.0 mm 0.00 in/hr0.0 mm/hr 0.00 in0.0 mm
03:38 AM 17.1°F-8.3°C 2.7°F-16.3°C 53% 9.5 mph WNW15.3 kmh WNW 15.1 mph24.3 kmh 32.01 in1084.0 mb 0.00 in0.0 mm 0.00 in/hr0.0 mm/hr 0.00 in0.0 mm
03:33 AM 17.2°F-8.2°C 2.8°F-16.2°C 53% 9.1 mph W14.6 kmh W 15.1 mph24.3 kmh 32.01 in1084.0 mb 0.00 in0.0 mm 0.00 in/hr0.0 mm/hr 0.00 in0.0 mm
03:28 AM 17.4°F-8.1°C 3.0°F-16.1°C 53% 9.5 mph WNW15.3 kmh WNW 15.1 mph24.3 kmh 32.01 in1084.0 mb 0.00 in0.0 mm 0.00 in/hr0.0 mm/hr 0.00 in0.0 mm
03:23 AM 17.6°F-8.0°C 3.2°F-16.0°C 53% 7.9 mph WNW12.7 kmh WNW 13.2 mph21.2 kmh 32.01 in1084.0 mb 0.00 in0.0 mm 0.00 in/hr0.0 mm/hr 0.00 in0.0 mm
03:18 AM 18.1°F-7.7°C 3.1°F-16.1°C 52% 6.8 mph W10.9 kmh W 12.0 mph19.3 kmh 32.01 in1084.0 mb 0.00 in0.0 mm 0.00 in/hr0.0 mm/hr 0.00 in0.0 mm
03:12 AM 18.5°F-7.5°C 3.5°F-15.8°C 52% 8.2 mph WNW13.2 kmh WNW 13.9 mph22.4 kmh 32.01 in1084.0 mb 0.00 in0.0 mm 0.00 in/hr0.0 mm/hr 0.00 in0.0 mm
03:08 AM 18.7°F-7.4°C 3.7°F-15.7°C 52% 9.3 mph W15.0 kmh W 13.9 mph22.4 kmh 32.01 in1084.0 mb 0.00 in0.0 mm 0.00 in/hr0.0 mm/hr 0.00 in0.0 mm
03:02 AM 18.9°F-7.3°C 3.9°F-15.6°C 52% 6.7 mph WNW10.8 kmh WNW 16.9 mph27.2 kmh 32.01 in1084.0 mb 0.00 in0.0 mm 0.00 in/hr0.0 mm/hr 0.00 in0.0 mm
02:57 AM 19.0°F-7.2°C 4.0°F-15.6°C 52% 7.4 mph W11.9 kmh W 16.9 mph27.2 kmh 32.01 in1084.0 mb 0.00 in0.0 mm 0.00 in/hr0.0 mm/hr 0.00 in0.0 mm
02:52 AM 19.2°F-7.1°C 4.2°F-15.4°C 52% 9.2 mph W14.8 kmh W 15.1 mph24.3 kmh 32.01 in1084.0 mb 0.00 in0.0 mm 0.00 in/hr0.0 mm/hr 0.00 in0.0 mm
02:47 AM 19.4°F-7.0°C 4.4°F-15.3°C 52% 6.7 mph W10.8 kmh W 13.9 mph22.4 kmh 32.01 in1084.0 mb 0.00 in0.0 mm 0.00 in/hr0.0 mm/hr 0.00 in0.0 mm
02:41 AM 19.6°F-6.9°C 4.6°F-15.2°C 52% 9.8 mph W15.8 kmh W 13.2 mph21.2 kmh 32.01 in1084.0 mb 0.00 in0.0 mm 0.00 in/hr0.0 mm/hr 0.00 in0.0 mm
02:36 AM 19.6°F-6.9°C 4.6°F-15.2°C 52% 6.2 mph W10.0 kmh W 17.6 mph28.3 kmh 32.01 in1084.0 mb 0.00 in0.0 mm 0.00 in/hr0.0 mm/hr 0.00 in0.0 mm
02:31 AM 19.6°F-6.9°C 4.6°F-15.2°C 52% 11.5 mph W18.5 kmh W 17.6 mph28.3 kmh 32.01 in1084.0 mb 0.00 in0.0 mm 0.00 in/hr0.0 mm/hr 0.00 in0.0 mm
02:26 AM 19.8°F-6.8°C 4.8°F-15.1°C 52% 8.5 mph WNW13.7 kmh WNW 17.6 mph28.3 kmh 32.01 in1084.0 mb 0.00 in0.0 mm 0.00 in/hr0.0 mm/hr 0.00 in0.0 mm
02:21 AM 19.8°F-6.8°C 4.8°F-15.1°C 52% 10.7 mph WNW17.2 kmh WNW 17.6 mph28.3 kmh 32.01 in1084.0 mb 0.00 in0.0 mm 0.00 in/hr0.0 mm/hr 0.00 in0.0 mm
02:16 AM 19.8°F-6.8°C 4.8°F-15.1°C 52% 11.5 mph WNW18.5 kmh WNW 18.1 mph29.1 kmh 32.01 in1084.0 mb 0.00 in0.0 mm 0.00 in/hr0.0 mm/hr 0.00 in0.0 mm
02:11 AM 19.8°F-6.8°C 4.8°F-15.1°C 52% 8.7 mph WNW14.0 kmh WNW 18.1 mph29.1 kmh 32.01 in1084.0 mb 0.00 in0.0 mm 0.00 in/hr0.0 mm/hr 0.00 in0.0 mm
02:06 AM 19.8°F-6.8°C 4.8°F-15.1°C 52% 10.9 mph WNW17.5 kmh WNW 17.6 mph28.3 kmh 32.01 in1084.0 mb 0.00 in0.0 mm 0.00 in/hr0.0 mm/hr 0.00 in0.0 mm
02:01 AM 19.8°F-6.8°C 4.8°F-15.1°C 52% 9.3 mph WNW15.0 kmh WNW 17.6 mph28.3 kmh 32.01 in1084.0 mb 0.00 in0.0 mm 0.00 in/hr0.0 mm/hr 0.00 in0.0 mm
01:55 AM 19.9°F-6.7°C 4.9°F-15.1°C 52% 8.8 mph WNW14.2 kmh WNW 17.6 mph28.3 kmh 32.01 in1084.0 mb 0.00 in0.0 mm 0.00 in/hr0.0 mm/hr 0.00 in0.0 mm
01:50 AM 19.9°F-6.7°C 4.9°F-15.1°C 52% 5.7 mph NW9.2 kmh NW 11.4 mph18.3 kmh 32.01 in1084.0 mb 0.00 in0.0 mm 0.00 in/hr0.0 mm/hr 0.00 in0.0 mm
01:45 AM 19.9°F-6.7°C 4.9°F-15.1°C 52% 6.3 mph NW10.1 kmh NW 15.1 mph24.3 kmh 32.01 in1084.0 mb 0.00 in0.0 mm 0.00 in/hr0.0 mm/hr 0.00 in0.0 mm
01:40 AM 19.9°F-6.7°C 5.0°F-15.0°C 52% 6.2 mph NW10.0 kmh NW 15.1 mph24.3 kmh 32.01 in1084.0 mb 0.00 in0.0 mm 0.00 in/hr0.0 mm/hr 0.00 in0.0 mm
01:35 AM 19.9°F-6.7°C 5.0°F-15.0°C 52% 8.1 mph WNW13.0 kmh WNW 15.1 mph24.3 kmh 32.01 in1084.0 mb 0.00 in0.0 mm 0.00 in/hr0.0 mm/hr 0.00 in0.0 mm
01:30 AM 19.9°F-6.7°C 5.0°F-15.0°C 52% 6.9 mph WNW11.1 kmh WNW 14.4 mph23.2 kmh 32.01 in1084.0 mb 0.00 in0.0 mm 0.00 in/hr0.0 mm/hr 0.00 in0.0 mm
01:25 AM 19.9°F-6.7°C 5.0°F-15.0°C 52% 6.2 mph NW10.0 kmh NW 12.0 mph19.3 kmh 32.01 in1084.0 mb 0.00 in0.0 mm 0.00 in/hr0.0 mm/hr 0.00 in0.0 mm
01:20 AM 19.9°F-6.7°C 5.0°F-15.0°C 52% 4.4 mph NW7.1 kmh NW 12.0 mph19.3 kmh 32.01 in1084.0 mb 0.00 in0.0 mm 0.00 in/hr0.0 mm/hr 0.00 in0.0 mm
01:15 AM 19.9°F-6.7°C 5.0°F-15.0°C 52% 8.0 mph NW12.9 kmh NW 12.0 mph19.3 kmh 32.01 in1084.0 mb 0.00 in0.0 mm 0.00 in/hr0.0 mm/hr 0.00 in0.0 mm
01:08 AM 19.9°F-6.7°C 5.0°F-15.0°C 52% 8.1 mph WNW13.0 kmh WNW 14.4 mph23.2 kmh 32.01 in1084.0 mb 0.00 in0.0 mm 0.00 in/hr0.0 mm/hr 0.00 in0.0 mm
01:03 AM 20.1°F-6.6°C 5.2°F-14.9°C 52% 9.2 mph WNW14.8 kmh WNW 15.1 mph24.3 kmh 32.01 in1084.0 mb 0.00 in0.0 mm 0.00 in/hr0.0 mm/hr 0.00 in0.0 mm
12:58 AM 20.1°F-6.6°C 5.2°F-14.9°C 52% 8.6 mph W13.8 kmh W 15.1 mph24.3 kmh 32.01 in1084.0 mb 0.00 in0.0 mm 0.00 in/hr0.0 mm/hr 0.00 in0.0 mm
12:53 AM 20.1°F-6.6°C 5.2°F-14.9°C 52% 8.8 mph WNW14.2 kmh WNW 14.4 mph23.2 kmh 32.01 in1084.0 mb 0.00 in0.0 mm 0.00 in/hr0.0 mm/hr 0.00 in0.0 mm
12:48 AM 20.1°F-6.6°C 5.2°F-14.9°C 52% 11.2 mph W18.0 kmh W 18.1 mph29.1 kmh 32.01 in1084.0 mb 0.00 in0.0 mm 0.00 in/hr0.0 mm/hr 0.00 in0.0 mm
12:43 AM 20.3°F-6.5°C 5.4°F-14.8°C 52% 9.8 mph WNW15.8 kmh WNW 18.1 mph29.1 kmh 32.01 in1084.0 mb 0.00 in0.0 mm 0.00 in/hr0.0 mm/hr 0.00 in0.0 mm
12:38 AM 20.3°F-6.5°C 5.4°F-14.8°C 52% 8.0 mph WNW12.9 kmh WNW 15.1 mph24.3 kmh 32.01 in1084.0 mb 0.00 in0.0 mm 0.00 in/hr0.0 mm/hr 0.00 in0.0 mm
12:33 AM 20.3°F-6.5°C 5.4°F-14.8°C 52% 11.3 mph WNW18.2 kmh WNW 15.1 mph24.3 kmh 32.01 in1084.0 mb 0.00 in0.0 mm 0.00 in/hr0.0 mm/hr 0.00 in0.0 mm
12:28 AM 20.3°F-6.5°C 5.4°F-14.8°C 52% 10.6 mph WNW17.1 kmh WNW 15.1 mph24.3 kmh 32.01 in1084.0 mb 0.00 in0.0 mm 0.00 in/hr0.0 mm/hr 0.00 in0.0 mm
12:23 AM 20.5°F-6.4°C 5.6°F-14.7°C 52% 7.1 mph WNW11.4 kmh WNW 15.1 mph24.3 kmh 32.01 in1084.0 mb 0.00 in0.0 mm 0.00 in/hr0.0 mm/hr 0.00 in0.0 mm
12:17 AM 20.5°F-6.4°C 5.6°F-14.7°C 52% 8.0 mph WNW12.9 kmh WNW 16.9 mph27.2 kmh 32.01 in1084.0 mb 0.00 in0.0 mm 0.00 in/hr0.0 mm/hr 0.00 in0.0 mm
12:12 AM 20.5°F-6.4°C 5.6°F-14.7°C 52% 10.0 mph WNW16.1 kmh WNW 17.6 mph28.3 kmh 32.01 in1084.0 mb 0.00 in0.0 mm 0.00 in/hr0.0 mm/hr 0.00 in0.0 mm
12:07 AM 20.7°F-6.3°C 5.8°F-14.6°C 52% 10.1 mph WNW16.3 kmh WNW 19.4 mph31.2 kmh 32.01 in1084.0 mb 0.00 in0.0 mm 0.00 in/hr0.0 mm/hr 0.00 in0.0 mm
12:02 AM 20.7°F-6.3°C 5.8°F-14.6°C 52% 11.2 mph NW18.0 kmh NW 19.4 mph31.2 kmh 32.01 in1084.0 mb 0.00 in0.0 mm 0.00 in/hr0.0 mm/hr 0.00 in0.0 mm